createdAt,value
2022-09-23T00:00:41.560Z,967.12
2022-09-23T00:01:00.261Z,967.12
2022-09-23T00:01:31.266Z,966.91
2022-09-23T00:02:03.372Z,966.91
2022-09-23T00:02:33.332Z,966.91
2022-09-23T00:03:04.265Z,967.12
2022-09-23T00:03:35.208Z,967.12
2022-09-23T00:04:06.191Z,967.02
2022-09-23T00:04:37.173Z,967.02
2022-09-23T00:05:08.203Z,967.02
2022-09-23T00:05:39.195Z,967.02
2022-09-23T00:06:10.238Z,967.12
2022-09-23T00:06:41.151Z,967.12
2022-09-23T00:07:13.194Z,967.12
2022-09-23T00:07:43.235Z,967.12
2022-09-23T00:08:14.166Z,966.91
2022-09-23T00:08:45.203Z,966.91
2022-09-23T00:09:16.184Z,966.91
2022-09-23T00:09:47.191Z,966.91
2022-09-23T00:10:18.309Z,967.02
2022-09-23T00:10:49.228Z,967.02
2022-09-23T00:11:20.176Z,967.02
2022-09-23T00:11:51.221Z,967.02
2022-09-23T00:12:23.209Z,966.91
2022-09-23T00:12:53.241Z,966.91
2022-09-23T00:13:24.204Z,966.91
2022-09-23T00:13:55.186Z,966.91
2022-09-23T00:14:26.173Z,967.02
2022-09-23T00:14:57.197Z,967.02
2022-09-23T00:15:40.577Z,967.02
2022-09-23T00:15:59.158Z,967.02
2022-09-23T00:16:30.222Z,966.81
2022-09-23T00:17:01.330Z,966.81
2022-09-23T00:17:33.378Z,966.91
2022-09-23T00:18:04.246Z,967.02
2022-09-23T00:18:34.335Z,967.02
2022-09-23T00:19:05.252Z,967.02
2022-09-23T00:19:36.165Z,967.02
2022-09-23T00:20:07.249Z,967.02
2022-09-23T00:20:38.187Z,967.02
2022-09-23T00:21:09.213Z,966.91
2022-09-23T00:21:40.179Z,966.91
2022-09-23T00:22:11.201Z,967.02
2022-09-23T00:22:43.194Z,967.02
2022-09-23T00:23:13.220Z,966.91
2022-09-23T00:23:44.182Z,966.91
2022-09-23T00:24:15.211Z,966.91
2022-09-23T00:24:46.176Z,966.91
2022-09-23T00:25:17.175Z,967.22
2022-09-23T00:25:48.182Z,967.22
2022-09-23T00:26:19.323Z,966.91
2022-09-23T00:26:50.199Z,966.91
2022-09-23T00:27:21.238Z,967.02
2022-09-23T00:27:53.198Z,967.02
2022-09-23T00:28:23.210Z,966.91
2022-09-23T00:28:54.226Z,966.91
2022-09-23T00:29:25.164Z,967.02
2022-09-23T00:29:56.237Z,967.02
2022-09-23T00:30:39.609Z,966.81
2022-09-23T00:30:58.243Z,966.81
2022-09-23T00:31:29.176Z,966.91
2022-09-23T00:32:00.181Z,966.91
2022-09-23T00:32:31.248Z,966.91
2022-09-23T00:33:03.163Z,966.91
2022-09-23T00:33:33.162Z,966.91
2022-09-23T00:34:04.204Z,966.71
2022-09-23T00:34:35.181Z,966.71
2022-09-23T00:35:06.244Z,966.81
2022-09-23T00:35:37.178Z,966.81
2022-09-23T00:36:08.203Z,966.81
2022-09-23T00:36:39.220Z,966.81
2022-09-23T00:37:10.235Z,966.91
2022-09-23T00:37:41.369Z,966.91
2022-09-23T00:38:13.178Z,966.71
2022-09-23T00:38:43.180Z,966.71
2022-09-23T00:39:14.214Z,967.02
2022-09-23T00:39:45.160Z,967.02
2022-09-23T00:40:18.949Z,966.81
2022-09-23T00:40:47.269Z,966.81
2022-09-23T00:41:18.186Z,966.81
2022-09-23T00:41:49.193Z,966.81
2022-09-23T00:42:20.167Z,966.81
2022-09-23T00:42:51.177Z,966.81
2022-09-23T00:43:23.192Z,966.81
2022-09-23T00:43:53.242Z,966.81
2022-09-23T00:44:24.200Z,966.81
2022-09-23T00:44:55.172Z,966.81
2022-09-23T00:45:38.583Z,966.91
2022-09-23T00:45:57.223Z,966.91
2022-09-23T00:46:28.199Z,966.91
2022-09-23T00:46:59.169Z,966.91
2022-09-23T00:47:30.190Z,966.71
2022-09-23T00:48:01.219Z,966.71
2022-09-23T00:48:33.160Z,966.91
2022-09-23T00:49:04.244Z,966.91
2022-09-23T00:49:34.181Z,966.91
2022-09-23T00:50:05.264Z,966.71
2022-09-23T00:50:36.174Z,966.71
2022-09-23T00:51:07.199Z,966.71
2022-09-23T00:51:38.207Z,966.71
2022-09-23T00:52:09.233Z,966.81
2022-09-23T00:52:40.169Z,966.81
2022-09-23T00:53:11.157Z,966.71
2022-09-23T00:53:43.172Z,966.71
2022-09-23T00:54:13.211Z,966.61
2022-09-23T00:54:44.208Z,966.61
2022-09-23T00:55:15.167Z,966.81
2022-09-23T00:55:46.168Z,966.81
2022-09-23T00:56:17.146Z,966.51
2022-09-23T00:56:48.184Z,966.51
2022-09-23T00:57:19.215Z,966.51
2022-09-23T00:57:50.185Z,966.51
2022-09-23T00:58:21.330Z,966.61
2022-09-23T00:58:53.190Z,966.61
2022-09-23T00:59:23.239Z,966.61
2022-09-23T00:59:54.178Z,966.61
2022-09-23T01:00:39.908Z,966.71
2022-09-23T01:00:57.938Z,966.71
2022-09-23T01:01:27.229Z,966.51
2022-09-23T01:01:58.494Z,966.51
2022-09-23T01:02:34.090Z,966.51
2022-09-23T01:03:01.791Z,966.51
2022-09-23T01:03:31.297Z,966.61
2022-09-23T01:04:21.207Z,966.71
2022-09-23T01:04:33.190Z,966.71
2022-09-23T01:05:05.724Z,966.71
2022-09-23T01:05:35.194Z,966.71
2022-09-23T01:06:06.239Z,966.71
2022-09-23T01:06:37.243Z,966.71
2022-09-23T01:07:08.292Z,966.51
2022-09-23T01:07:39.289Z,966.51
2022-09-23T01:08:10.274Z,966.61
2022-09-23T01:08:41.329Z,966.61
2022-09-23T01:09:13.292Z,966.71
2022-09-23T01:09:43.249Z,966.71
2022-09-23T01:10:14.193Z,966.51
2022-09-23T01:10:45.250Z,966.51
2022-09-23T01:11:16.150Z,966.51
2022-09-23T01:11:47.175Z,966.51
2022-09-23T01:12:18.222Z,966.51
2022-09-23T01:12:49.178Z,966.51
2022-09-23T01:13:20.230Z,966.71
2022-09-23T01:13:51.264Z,966.71
2022-09-23T01:14:23.289Z,966.71
2022-09-23T01:14:53.244Z,966.71
2022-09-23T01:15:36.580Z,966.61
2022-09-23T01:15:55.201Z,966.61
2022-09-23T01:16:26.327Z,966.61
2022-09-23T01:16:57.270Z,966.61
2022-09-23T01:17:28.153Z,966.44
2022-09-23T01:17:59.155Z,966.44
2022-09-23T01:18:30.211Z,966.51
2022-09-23T01:19:01.195Z,966.51
2022-09-23T01:19:33.163Z,966.81
2022-09-23T01:20:04.229Z,966.61
2022-09-23T01:20:34.212Z,966.61
2022-09-23T01:21:05.199Z,966.34
2022-09-23T01:21:36.185Z,966.34
2022-09-23T01:22:07.193Z,966.51
2022-09-23T01:22:38.166Z,966.51
2022-09-23T01:23:09.248Z,966.44
2022-09-23T01:23:40.194Z,966.44
2022-09-23T01:24:11.285Z,966.34
2022-09-23T01:24:43.161Z,966.34
2022-09-23T01:25:13.181Z,966.34
2022-09-23T01:25:44.163Z,966.34
2022-09-23T01:26:15.175Z,966.34
2022-09-23T01:26:46.171Z,966.34
2022-09-23T01:27:17.143Z,966.34
2022-09-23T01:27:48.193Z,966.34
2022-09-23T01:28:19.169Z,966.51
2022-09-23T01:28:50.149Z,966.51
2022-09-23T01:29:21.424Z,966.51
2022-09-23T01:29:53.208Z,966.51
2022-09-23T01:30:35.891Z,966.44
2022-09-23T01:30:54.269Z,966.44
2022-09-23T01:31:25.176Z,966.44
2022-09-23T01:31:56.160Z,966.44
2022-09-23T01:32:27.217Z,966.44
2022-09-23T01:32:58.182Z,966.44
2022-09-23T01:33:29.146Z,966.51
2022-09-23T01:34:00.172Z,966.51
2022-09-23T01:34:31.192Z,966.34
2022-09-23T01:35:03.218Z,966.51
2022-09-23T01:35:33.214Z,966.51
2022-09-23T01:36:04.191Z,966.51
2022-09-23T01:36:35.165Z,966.51
2022-09-23T01:37:06.229Z,966.51
2022-09-23T01:37:37.146Z,966.51
2022-09-23T01:38:08.204Z,966.51
2022-09-23T01:38:39.151Z,966.51
2022-09-23T01:39:10.266Z,966.24
2022-09-23T01:39:41.180Z,966.24
2022-09-23T01:40:13.388Z,966.34
2022-09-23T01:40:43.222Z,966.34
2022-09-23T01:41:14.138Z,966.51
2022-09-23T01:41:45.142Z,966.51
2022-09-23T01:42:16.141Z,966.44
2022-09-23T01:42:47.164Z,966.44
2022-09-23T01:43:18.146Z,966.44
2022-09-23T01:43:49.158Z,966.44
2022-09-23T01:44:20.160Z,966.44
2022-09-23T01:44:51.170Z,966.44
2022-09-23T01:45:35.557Z,966.34
2022-09-23T01:45:53.183Z,966.34
2022-09-23T01:46:24.187Z,966.44
2022-09-23T01:46:55.176Z,966.44
2022-09-23T01:47:26.153Z,966.44
2022-09-23T01:47:57.225Z,966.44
2022-09-23T01:48:28.210Z,966.44
2022-09-23T01:48:59.270Z,966.44
2022-09-23T01:49:30.206Z,966.44
2022-09-23T01:50:01.256Z,966.44
2022-09-23T01:50:33.231Z,966.24
2022-09-23T01:51:04.325Z,966.34
2022-09-23T01:51:34.160Z,966.34
2022-09-23T01:52:05.227Z,966.34
2022-09-23T01:52:36.143Z,966.34
2022-09-23T01:53:07.149Z,966.44
2022-09-23T01:53:38.145Z,966.44
2022-09-23T01:54:09.277Z,966.44
2022-09-23T01:54:40.154Z,966.44
2022-09-23T01:55:11.185Z,966.51
2022-09-23T01:55:43.196Z,966.51
2022-09-23T01:56:13.144Z,966.24
2022-09-23T01:56:44.164Z,966.24
2022-09-23T01:57:15.184Z,966.34
2022-09-23T01:57:46.145Z,966.34
2022-09-23T01:58:17.188Z,966.34
2022-09-23T01:58:48.229Z,966.34
2022-09-23T01:59:19.152Z,966.51
2022-09-23T01:59:50.170Z,966.51
2022-09-23T02:00:33.696Z,966.24
2022-09-23T02:00:53.288Z,966.24
2022-09-23T02:01:23.285Z,966.13
2022-09-23T02:01:54.188Z,966.13
2022-09-23T02:02:25.273Z,966.44
2022-09-23T02:02:56.173Z,966.44
2022-09-23T02:03:27.143Z,966.34
2022-09-23T02:03:58.159Z,966.34
2022-09-23T02:04:29.180Z,966.24
2022-09-23T02:05:00.145Z,966.24
2022-09-23T02:05:31.182Z,966.24
2022-09-23T02:06:03.212Z,966.51
2022-09-23T02:06:33.165Z,966.51
2022-09-23T02:07:04.195Z,966.44
2022-09-23T02:07:35.177Z,966.44
2022-09-23T02:08:06.198Z,966.13
2022-09-23T02:08:37.144Z,966.13
2022-09-23T02:09:08.191Z,966.34
2022-09-23T02:09:39.200Z,966.34
2022-09-23T02:10:10.184Z,966.34
2022-09-23T02:10:41.147Z,966.34
2022-09-23T02:11:13.157Z,966.44
2022-09-23T02:11:43.166Z,966.44
2022-09-23T02:12:14.129Z,966.34
2022-09-23T02:12:45.143Z,966.34
2022-09-23T02:13:16.195Z,966.44
2022-09-23T02:13:47.153Z,966.44
2022-09-23T02:14:18.319Z,966.13
2022-09-23T02:14:49.153Z,966.13
2022-09-23T02:15:32.563Z,966.24
2022-09-23T02:15:51.150Z,966.24
2022-09-23T02:16:23.267Z,966.13
2022-09-23T02:16:53.217Z,966.13
2022-09-23T02:17:24.193Z,966.13
2022-09-23T02:17:55.152Z,966.13
2022-09-23T02:18:26.139Z,966.13
2022-09-23T02:18:57.136Z,966.13
2022-09-23T02:19:28.149Z,966.13
2022-09-23T02:19:59.156Z,966.13
2022-09-23T02:20:30.163Z,966.13
2022-09-23T02:21:01.217Z,966.13
2022-09-23T02:21:33.141Z,966.34
2022-09-23T02:22:04.188Z,966.34
2022-09-23T02:22:34.134Z,966.34
2022-09-23T02:23:05.229Z,966.34
2022-09-23T02:23:36.133Z,966.34
2022-09-23T02:24:07.148Z,966.13
2022-09-23T02:24:38.137Z,966.13
2022-09-23T02:25:09.218Z,966.03
2022-09-23T02:25:40.155Z,966.03
2022-09-23T02:26:11.129Z,966.24
2022-09-23T02:26:43.208Z,966.24
2022-09-23T02:27:13.159Z,966.03
2022-09-23T02:27:44.184Z,966.03
2022-09-23T02:28:15.139Z,966.24
2022-09-23T02:28:46.252Z,966.24
2022-09-23T02:29:17.147Z,966.34
2022-09-23T02:29:48.146Z,966.34
2022-09-23T02:30:31.606Z,966.34
2022-09-23T02:30:50.145Z,966.34
2022-09-23T02:31:21.227Z,966.03
2022-09-23T02:31:53.233Z,966.03
2022-09-23T02:32:23.123Z,966.24
2022-09-23T02:32:54.177Z,966.24
2022-09-23T02:33:25.141Z,966.13
2022-09-23T02:33:56.131Z,966.13
2022-09-23T02:34:27.136Z,966.34
2022-09-23T02:34:58.134Z,966.34
2022-09-23T02:35:29.168Z,966.24
2022-09-23T02:36:00.167Z,966.24
2022-09-23T02:36:31.151Z,966.24
2022-09-23T02:37:03.169Z,966.24
2022-09-23T02:37:33.174Z,966.24
2022-09-23T02:38:04.202Z,966.13
2022-09-23T02:38:35.132Z,966.13
2022-09-23T02:39:06.187Z,966.13
2022-09-23T02:39:37.180Z,966.13
2022-09-23T02:40:08.247Z,966.13
2022-09-23T02:40:39.155Z,966.13
2022-09-23T02:41:10.190Z,966.34
2022-09-23T02:41:41.188Z,966.34
2022-09-23T02:42:13.133Z,966.13
2022-09-23T02:42:43.145Z,966.13
2022-09-23T02:43:14.148Z,966.03
2022-09-23T02:43:45.153Z,966.03
2022-09-23T02:44:16.233Z,966.34
2022-09-23T02:44:47.145Z,966.34
2022-09-23T02:45:30.653Z,966.24
2022-09-23T02:45:49.232Z,966.24
2022-09-23T02:46:20.220Z,966.03
2022-09-23T02:46:51.188Z,966.03
2022-09-23T02:47:23.176Z,966.34
2022-09-23T02:47:53.131Z,966.34
2022-09-23T02:48:24.190Z,966.13
2022-09-23T02:48:55.157Z,966.13
2022-09-23T02:49:26.154Z,965.93
2022-09-23T02:49:57.177Z,965.93
2022-09-23T02:50:28.149Z,966.13
2022-09-23T02:50:59.167Z,966.13
2022-09-23T02:51:30.208Z,966.24
2022-09-23T02:52:01.171Z,966.24
2022-09-23T02:52:33.151Z,966.13
2022-09-23T02:53:04.155Z,966.13
2022-09-23T02:53:34.190Z,966.13
2022-09-23T02:54:05.251Z,966.24
2022-09-23T02:54:36.145Z,966.24
2022-09-23T02:55:07.159Z,966.24
2022-09-23T02:55:38.129Z,966.24
2022-09-23T02:56:09.170Z,966.13
2022-09-23T02:56:40.137Z,966.13
2022-09-23T02:57:11.121Z,966.03
2022-09-23T02:57:43.146Z,966.03
2022-09-23T02:58:13.185Z,966.24
2022-09-23T02:58:44.122Z,966.24
2022-09-23T02:59:15.160Z,966.13
2022-09-23T02:59:46.312Z,966.13
2022-09-23T03:00:29.524Z,966.03
2022-09-23T03:00:48.184Z,966.03
2022-09-23T03:01:19.235Z,966.13
2022-09-23T03:01:50.176Z,966.13
2022-09-23T03:02:21.158Z,966.24
2022-09-23T03:02:53.155Z,966.24
2022-09-23T03:03:23.142Z,966.13
2022-09-23T03:03:54.138Z,966.13
2022-09-23T03:04:25.194Z,966.13
2022-09-23T03:04:56.169Z,966.13
2022-09-23T03:05:27.147Z,965.93
2022-09-23T03:05:58.125Z,965.93
2022-09-23T03:06:29.177Z,966.03
2022-09-23T03:07:00.157Z,966.03
2022-09-23T03:07:31.127Z,965.93
2022-09-23T03:08:03.157Z,966.03
2022-09-23T03:08:33.126Z,966.03
2022-09-23T03:09:04.277Z,966.03
2022-09-23T03:09:35.188Z,966.03
2022-09-23T03:10:06.220Z,966.24
2022-09-23T03:10:37.162Z,966.24
2022-09-23T03:11:08.192Z,966.24
2022-09-23T03:11:39.146Z,966.24
2022-09-23T03:12:10.163Z,966.13
2022-09-23T03:12:41.183Z,966.13
2022-09-23T03:13:13.137Z,966.03
2022-09-23T03:13:43.138Z,966.03
2022-09-23T03:14:14.129Z,966.34
2022-09-23T03:14:45.199Z,966.34
2022-09-23T03:15:28.441Z,966.13
2022-09-23T03:15:47.138Z,966.13
2022-09-23T03:16:18.245Z,966.03
2022-09-23T03:16:49.222Z,966.03
2022-09-23T03:17:20.130Z,966.13
2022-09-23T03:17:51.233Z,966.13
2022-09-23T03:18:23.159Z,966.03
2022-09-23T03:18:53.127Z,966.03
2022-09-23T03:19:24.215Z,965.93
2022-09-23T03:19:55.116Z,965.93
2022-09-23T03:20:26.174Z,965.83
2022-09-23T03:20:57.144Z,965.83
2022-09-23T03:21:28.162Z,965.83
2022-09-23T03:21:59.305Z,965.83
2022-09-23T03:22:30.167Z,966.03
2022-09-23T03:23:01.221Z,966.03
2022-09-23T03:23:33.139Z,966.03
2022-09-23T03:24:04.150Z,965.83
2022-09-23T03:24:34.181Z,965.83
2022-09-23T03:25:05.165Z,966.03
2022-09-23T03:25:36.184Z,966.03
2022-09-23T03:26:07.140Z,966.13
2022-09-23T03:26:38.119Z,966.13
2022-09-23T03:27:09.312Z,966.03
2022-09-23T03:27:40.133Z,966.03
2022-09-23T03:28:11.180Z,965.93
2022-09-23T03:28:43.132Z,965.93
2022-09-23T03:29:13.264Z,965.93
2022-09-23T03:29:44.130Z,965.93
2022-09-23T03:30:27.582Z,966.03
2022-09-23T03:30:46.136Z,966.03
2022-09-23T03:31:17.186Z,966.03
2022-09-23T03:31:48.274Z,966.03
2022-09-23T03:32:19.133Z,965.73
2022-09-23T03:32:50.126Z,965.73
2022-09-23T03:33:21.137Z,965.73
2022-09-23T03:33:53.145Z,965.73
2022-09-23T03:34:23.150Z,965.83
2022-09-23T03:34:54.207Z,965.83
2022-09-23T03:35:25.187Z,966.03
2022-09-23T03:35:56.121Z,966.03
2022-09-23T03:36:27.187Z,965.93
2022-09-23T03:36:58.127Z,965.93
2022-09-23T03:37:29.112Z,965.73
2022-09-23T03:38:00.323Z,965.73
2022-09-23T03:38:31.128Z,965.83
2022-09-23T03:39:03.194Z,965.83
2022-09-23T03:39:33.110Z,965.83
2022-09-23T03:40:04.285Z,965.63
2022-09-23T03:40:35.340Z,965.63
2022-09-23T03:41:06.120Z,965.83
2022-09-23T03:41:37.115Z,965.83
2022-09-23T03:42:08.147Z,966.03
2022-09-23T03:42:39.125Z,966.03
2022-09-23T03:43:10.186Z,965.73
2022-09-23T03:43:41.124Z,965.73
2022-09-23T03:44:13.359Z,965.83
2022-09-23T03:44:43.278Z,965.83
2022-09-23T03:45:26.511Z,965.93
2022-09-23T03:45:45.149Z,965.93
2022-09-23T03:46:16.226Z,965.93
2022-09-23T03:46:47.128Z,965.93
2022-09-23T03:47:18.137Z,965.73
2022-09-23T03:47:49.166Z,965.73
2022-09-23T03:48:20.176Z,965.83
2022-09-23T03:48:51.115Z,965.83
2022-09-23T03:49:23.289Z,965.83
2022-09-23T03:49:53.146Z,965.83
2022-09-23T03:50:24.218Z,965.83
2022-09-23T03:50:55.157Z,965.83
2022-09-23T03:51:26.141Z,966.03
2022-09-23T03:51:57.153Z,966.03
2022-09-23T03:52:28.109Z,965.83
2022-09-23T03:52:59.129Z,965.83
2022-09-23T03:53:30.156Z,965.93
2022-09-23T03:54:01.203Z,965.93
2022-09-23T03:54:33.098Z,965.83
2022-09-23T03:55:04.178Z,965.93
2022-09-23T03:55:34.104Z,965.93
2022-09-23T03:56:05.166Z,965.73
2022-09-23T03:56:36.134Z,965.73
2022-09-23T03:57:07.147Z,965.93
2022-09-23T03:57:38.112Z,965.93
2022-09-23T03:58:09.231Z,965.93
2022-09-23T03:58:40.122Z,965.93
2022-09-23T03:59:11.130Z,965.63
2022-09-23T03:59:43.138Z,965.63
2022-09-23T04:00:25.600Z,965.73
2022-09-23T04:00:44.157Z,965.73
2022-09-23T04:01:15.215Z,965.83
2022-09-23T04:01:46.340Z,965.83
2022-09-23T04:02:17.199Z,965.93
2022-09-23T04:02:48.108Z,965.93
2022-09-23T04:03:19.138Z,965.93
2022-09-23T04:03:50.174Z,965.93
2022-09-23T04:04:21.138Z,965.93
2022-09-23T04:04:53.233Z,965.93
2022-09-23T04:05:23.107Z,965.83
2022-09-23T04:05:54.154Z,965.83
2022-09-23T04:06:25.100Z,965.83
2022-09-23T04:06:56.315Z,965.83
2022-09-23T04:07:27.175Z,965.83
2022-09-23T04:07:58.106Z,965.83
2022-09-23T04:08:29.120Z,965.83
2022-09-23T04:09:00.161Z,965.83
2022-09-23T04:09:31.118Z,965.93
2022-09-23T04:10:03.205Z,965.73
2022-09-23T04:10:33.196Z,965.73
2022-09-23T04:11:04.197Z,965.83
2022-09-23T04:11:35.200Z,965.83
2022-09-23T04:12:06.156Z,965.73
2022-09-23T04:12:37.111Z,965.73
2022-09-23T04:13:08.143Z,965.73
2022-09-23T04:13:39.104Z,965.73
2022-09-23T04:14:10.135Z,965.93
2022-09-23T04:14:41.132Z,965.93
2022-09-23T04:15:25.466Z,965.83
2022-09-23T04:15:43.107Z,965.83
2022-09-23T04:16:14.193Z,965.73
2022-09-23T04:16:45.187Z,965.73
2022-09-23T04:17:16.157Z,965.73
2022-09-23T04:17:47.122Z,965.73
2022-09-23T04:18:18.151Z,965.73
2022-09-23T04:18:49.107Z,965.73
2022-09-23T04:19:20.165Z,965.93
2022-09-23T04:19:51.167Z,965.93
2022-09-23T04:20:23.138Z,965.73
2022-09-23T04:20:53.115Z,965.73
2022-09-23T04:21:24.120Z,965.73
2022-09-23T04:21:55.108Z,965.73
2022-09-23T04:22:26.128Z,965.63
2022-09-23T04:22:57.163Z,965.63
2022-09-23T04:23:28.150Z,965.93
2022-09-23T04:23:59.118Z,965.93
2022-09-23T04:24:30.136Z,965.83
2022-09-23T04:25:01.223Z,965.83
2022-09-23T04:25:33.123Z,965.73
2022-09-23T04:26:04.141Z,965.73
2022-09-23T04:26:34.098Z,965.73
2022-09-23T04:27:05.246Z,965.83
2022-09-23T04:27:37.941Z,965.83
2022-09-23T04:28:07.138Z,965.63
2022-09-23T04:28:38.155Z,965.63
2022-09-23T04:29:09.183Z,965.53
2022-09-23T04:29:40.333Z,965.53
2022-09-23T04:30:23.579Z,965.53
2022-09-23T04:30:43.184Z,965.53
2022-09-23T04:31:13.178Z,965.73
2022-09-23T04:31:44.179Z,965.73
2022-09-23T04:32:15.097Z,965.93
2022-09-23T04:32:46.152Z,965.93
2022-09-23T04:33:17.094Z,965.63
2022-09-23T04:33:48.155Z,965.63
2022-09-23T04:34:19.135Z,965.63
2022-09-23T04:34:50.166Z,965.63
2022-09-23T04:35:21.150Z,965.83
2022-09-23T04:35:53.156Z,965.83
2022-09-23T04:36:23.114Z,965.83
2022-09-23T04:36:54.114Z,965.83
2022-09-23T04:37:25.132Z,965.73
2022-09-23T04:37:56.200Z,965.73
2022-09-23T04:38:27.115Z,965.73
2022-09-23T04:38:58.097Z,965.73
2022-09-23T04:39:29.200Z,965.73
2022-09-23T04:40:00.147Z,965.73
2022-09-23T04:40:31.225Z,965.63
2022-09-23T04:41:03.126Z,965.53
2022-09-23T04:41:33.111Z,965.53
2022-09-23T04:42:04.134Z,965.63
2022-09-23T04:42:35.167Z,965.63
2022-09-23T04:43:07.817Z,965.53
2022-09-23T04:43:37.113Z,965.53
2022-09-23T04:44:08.121Z,965.73
2022-09-23T04:44:39.104Z,965.73
2022-09-23T04:45:22.488Z,965.83
2022-09-23T04:45:41.120Z,965.83
2022-09-23T04:46:13.129Z,965.42
2022-09-23T04:46:43.241Z,965.42
2022-09-23T04:47:14.094Z,965.63
2022-09-23T04:47:45.135Z,965.63
2022-09-23T04:48:16.160Z,965.83
2022-09-23T04:48:47.108Z,965.83
2022-09-23T04:49:18.115Z,965.73
2022-09-23T04:49:49.105Z,965.73
2022-09-23T04:50:20.158Z,965.73
2022-09-23T04:50:51.132Z,965.73
2022-09-23T04:51:23.136Z,965.83
2022-09-23T04:51:53.271Z,965.83
2022-09-23T04:52:24.110Z,965.73
2022-09-23T04:52:55.157Z,965.73
2022-09-23T04:53:26.109Z,965.83
2022-09-23T04:53:57.101Z,965.83
2022-09-23T04:54:28.170Z,965.63
2022-09-23T04:54:59.231Z,965.63
2022-09-23T04:55:30.111Z,965.83
2022-09-23T04:56:01.214Z,965.83
2022-09-23T04:56:33.097Z,965.93
2022-09-23T04:57:04.138Z,965.73
2022-09-23T04:57:34.099Z,965.73
2022-09-23T04:58:05.238Z,965.73
2022-09-23T04:58:36.100Z,965.73
2022-09-23T04:59:07.354Z,965.63
2022-09-23T04:59:38.187Z,965.63
2022-09-23T05:00:21.791Z,965.73
2022-09-23T05:00:40.196Z,965.73
2022-09-23T05:01:11.266Z,965.83
2022-09-23T05:01:43.305Z,965.83
2022-09-23T05:02:13.241Z,965.73
2022-09-23T05:02:44.172Z,965.73
2022-09-23T05:03:15.165Z,965.73
2022-09-23T05:03:46.207Z,965.73
2022-09-23T05:04:17.199Z,965.83
2022-09-23T05:04:48.155Z,965.83
2022-09-23T05:05:19.171Z,965.93
2022-09-23T05:05:50.494Z,965.93
2022-09-23T05:06:21.210Z,965.73
2022-09-23T05:06:53.389Z,965.73
2022-09-23T05:07:23.186Z,965.83
2022-09-23T05:07:54.266Z,965.83
2022-09-23T05:08:25.215Z,965.83
2022-09-23T05:08:56.194Z,965.83
2022-09-23T05:09:27.175Z,965.83
2022-09-23T05:09:58.171Z,965.83
2022-09-23T05:10:29.227Z,965.83
2022-09-23T05:11:00.209Z,965.83
2022-09-23T05:11:31.195Z,965.83
2022-09-23T05:12:03.176Z,965.73
2022-09-23T05:12:33.207Z,965.73
2022-09-23T05:13:04.190Z,965.63
2022-09-23T05:13:35.202Z,965.63
2022-09-23T05:14:06.396Z,965.73
2022-09-23T05:14:37.146Z,965.73
2022-09-23T05:15:20.541Z,965.83
2022-09-23T05:15:39.215Z,965.83
2022-09-23T05:16:10.208Z,965.93
2022-09-23T05:16:41.273Z,965.93
2022-09-23T05:17:13.171Z,965.73
2022-09-23T05:17:48.190Z,965.73
2022-09-23T05:18:17.861Z,965.73
2022-09-23T05:18:45.203Z,965.73
2022-09-23T05:19:16.188Z,965.83
2022-09-23T05:19:47.120Z,965.83
2022-09-23T05:20:18.303Z,965.93
2022-09-23T05:20:49.158Z,965.93
2022-09-23T05:21:20.288Z,965.83
2022-09-23T05:21:51.246Z,965.83
2022-09-23T05:22:23.189Z,965.83
2022-09-23T05:22:53.174Z,965.83
2022-09-23T05:23:24.158Z,965.83
2022-09-23T05:23:55.368Z,965.83
2022-09-23T05:24:26.107Z,965.73
2022-09-23T05:24:57.122Z,965.73
2022-09-23T05:25:28.268Z,965.83
2022-09-23T05:25:59.205Z,965.83
2022-09-23T05:26:30.184Z,965.63
2022-09-23T05:27:01.335Z,965.63
2022-09-23T05:27:33.179Z,965.73
2022-09-23T05:28:04.201Z,965.63
2022-09-23T05:28:34.172Z,965.63
2022-09-23T05:29:05.294Z,965.73
2022-09-23T05:29:36.193Z,965.73
2022-09-23T05:30:19.676Z,965.93
2022-09-23T05:30:38.194Z,965.93
2022-09-23T05:31:09.295Z,965.63
2022-09-23T05:31:40.265Z,965.63
2022-09-23T05:32:11.189Z,965.93
2022-09-23T05:32:43.183Z,965.93
2022-09-23T05:33:13.177Z,965.73
2022-09-23T05:33:44.163Z,965.73
2022-09-23T05:34:15.164Z,965.73
2022-09-23T05:34:46.210Z,965.73
2022-09-23T05:35:17.230Z,965.83
2022-09-23T05:35:48.172Z,965.83
2022-09-23T05:36:19.158Z,965.83
2022-09-23T05:36:50.178Z,965.83
2022-09-23T05:37:21.225Z,965.63
2022-09-23T05:37:53.226Z,965.63
2022-09-23T05:38:23.152Z,965.73
2022-09-23T05:38:54.301Z,965.73
2022-09-23T05:39:25.196Z,965.93
2022-09-23T05:39:56.173Z,965.93
2022-09-23T05:40:27.237Z,965.73
2022-09-23T05:40:58.180Z,965.73
2022-09-23T05:41:29.155Z,965.73
2022-09-23T05:42:00.158Z,965.73
2022-09-23T05:42:31.168Z,965.73
2022-09-23T05:43:03.165Z,965.73
2022-09-23T05:43:33.123Z,965.73
2022-09-23T05:44:04.200Z,965.73
2022-09-23T05:44:35.248Z,965.73
2022-09-23T05:45:18.497Z,965.93
2022-09-23T05:45:37.183Z,965.93
2022-09-23T05:46:08.609Z,965.63
2022-09-23T05:46:39.205Z,965.63
2022-09-23T05:47:10.286Z,965.83
2022-09-23T05:47:41.170Z,965.83
2022-09-23T05:48:13.159Z,965.93
2022-09-23T05:48:43.184Z,965.93
2022-09-23T05:49:14.177Z,965.83
2022-09-23T05:49:59.228Z,965.83
2022-09-23T05:50:16.196Z,965.73
2022-09-23T05:50:47.290Z,965.73
2022-09-23T05:51:18.225Z,965.73
2022-09-23T05:51:49.177Z,965.73
2022-09-23T05:52:20.214Z,965.73
2022-09-23T05:52:51.193Z,965.73
2022-09-23T05:53:23.210Z,965.83
2022-09-23T05:53:53.195Z,965.83
2022-09-23T05:54:24.174Z,965.63
2022-09-23T05:54:55.106Z,965.63
2022-09-23T05:55:26.158Z,965.93
2022-09-23T05:55:57.254Z,965.93
2022-09-23T05:56:28.262Z,965.83
2022-09-23T05:57:01.414Z,965.83
2022-09-23T05:57:30.145Z,965.73
2022-09-23T05:58:01.212Z,965.73
2022-09-23T05:58:33.154Z,965.83
2022-09-23T05:59:04.173Z,965.63
2022-09-23T05:59:34.165Z,965.63
2022-09-23T06:00:17.608Z,965.73
2022-09-23T06:00:36.234Z,965.73
2022-09-23T06:01:07.184Z,965.83
2022-09-23T06:01:38.193Z,965.83
2022-09-23T06:02:09.236Z,965.93
2022-09-23T06:02:40.233Z,965.93
2022-09-23T06:03:11.221Z,965.93
2022-09-23T06:03:43.198Z,965.93
2022-09-23T06:04:13.155Z,966.03
2022-09-23T06:04:44.164Z,966.03
2022-09-23T06:05:15.158Z,965.83
2022-09-23T06:05:46.204Z,965.83
2022-09-23T06:06:17.189Z,965.73
2022-09-23T06:06:48.169Z,965.73
2022-09-23T06:07:19.103Z,965.83
2022-09-23T06:07:50.189Z,965.83
2022-09-23T06:08:21.221Z,966.03
2022-09-23T06:08:53.219Z,966.03
2022-09-23T06:09:23.192Z,965.93
2022-09-23T06:09:54.199Z,965.93
2022-09-23T06:10:25.184Z,965.83
2022-09-23T06:10:56.144Z,965.83
2022-09-23T06:11:27.133Z,965.83
2022-09-23T06:11:58.189Z,965.83
2022-09-23T06:12:29.170Z,965.83
2022-09-23T06:13:00.184Z,965.83
2022-09-23T06:13:31.183Z,966.03
2022-09-23T06:14:03.412Z,965.83
2022-09-23T06:14:33.175Z,965.83
2022-09-23T06:15:16.504Z,966.03
2022-09-23T06:15:35.235Z,966.03
2022-09-23T06:16:06.228Z,965.93
2022-09-23T06:16:37.214Z,965.93
2022-09-23T06:17:08.185Z,965.73
2022-09-23T06:17:39.202Z,965.73
2022-09-23T06:18:10.171Z,965.93
2022-09-23T06:18:41.147Z,965.93
2022-09-23T06:19:13.129Z,965.83
2022-09-23T06:19:43.135Z,965.83
2022-09-23T06:20:14.169Z,965.73
2022-09-23T06:20:45.142Z,965.73
2022-09-23T06:21:16.180Z,965.83
2022-09-23T06:21:47.125Z,965.83
2022-09-23T06:22:18.170Z,966.13
2022-09-23T06:22:51.392Z,966.13
2022-09-23T06:23:23.210Z,965.83
2022-09-23T06:23:54.116Z,965.83
2022-09-23T06:24:27.243Z,966.03
2022-09-23T06:24:53.168Z,966.03
2022-09-23T06:25:24.205Z,965.73
2022-09-23T06:25:55.286Z,965.73
2022-09-23T06:26:26.162Z,965.93
2022-09-23T06:26:57.148Z,965.93